sensor_id;sensor_type;location;lat;lon;timestamp;P1;durP1;ratioP1;P2;durP2;ratioP2
19897;SDS011;10111;50.814;4.572;2022-08-05T05:07:15;9.27;;;6.50;;
19897;SDS011;10111;50.814;4.572;2022-08-05T05:09:42;8.50;;;6.07;;
19897;SDS011;10111;50.814;4.572;2022-08-05T05:12:08;6.73;;;5.60;;
19897;SDS011;10111;50.814;4.572;2022-08-05T05:14:33;12.33;;;5.67;;
19897;SDS011;10111;50.814;4.572;2022-08-05T05:16:59;7.77;;;6.20;;
19897;SDS011;10111;50.814;4.572;2022-08-05T05:19:25;9.30;;;7.13;;
19897;SDS011;10111;50.814;4.572;2022-08-05T05:21:51;8.00;;;6.37;;
19897;SDS011;10111;50.814;4.572;2022-08-05T05:24:16;8.27;;;6.27;;
19897;SDS011;10111;50.814;4.572;2022-08-05T05:26:43;8.87;;;6.20;;
19897;SDS011;10111;50.814;4.572;2022-08-05T05:29:08;17.07;;;6.37;;
19897;SDS011;10111;50.814;4.572;2022-08-05T05:31:34;9.93;;;5.70;;
19897;SDS011;10111;50.814;4.572;2022-08-05T05:34:00;10.30;;;6.03;;
19897;SDS011;10111;50.814;4.572;2022-08-05T05:36:25;13.10;;;7.03;;
19897;SDS011;10111;50.814;4.572;2022-08-05T05:38:51;8.90;;;5.73;;
19897;SDS011;10111;50.814;4.572;2022-08-05T05:41:17;10.60;;;5.57;;
19897;SDS011;10111;50.814;4.572;2022-08-05T05:43:42;8.07;;;5.80;;
19897;SDS011;10111;50.814;4.572;2022-08-05T05:46:08;12.77;;;6.30;;
19897;SDS011;10111;50.814;4.572;2022-08-05T05:48:33;9.03;;;5.97;;
19897;SDS011;10111;50.814;4.572;2022-08-05T05:50:59;11.83;;;6.80;;
19897;SDS011;10111;50.814;4.572;2022-08-05T05:53:25;11.67;;;6.50;;
19897;SDS011;10111;50.814;4.572;2022-08-05T05:55:50;9.67;;;6.37;;
19897;SDS011;10111;50.814;4.572;2022-08-05T05:58:16;12.97;;;5.83;;
19897;SDS011;10111;50.814;4.572;2022-08-05T06:00:41;6.53;;;5.57;;
19897;SDS011;10111;50.814;4.572;2022-08-05T06:03:07;8.77;;;5.83;;
19897;SDS011;10111;50.814;4.572;2022-08-05T06:05:33;11.73;;;5.67;;
19897;SDS011;10111;50.814;4.572;2022-08-05T06:07:59;8.27;;;6.07;;
19897;SDS011;10111;50.814;4.572;2022-08-05T06:10:24;9.20;;;6.80;;
19897;SDS011;10111;50.814;4.572;2022-08-05T06:12:50;12.50;;;5.53;;
19897;SDS011;10111;50.814;4.572;2022-08-05T06:15:16;5.93;;;5.27;;
19897;SDS011;10111;50.814;4.572;2022-08-05T06:17:41;8.47;;;5.20;;
19897;SDS011;10111;50.814;4.572;2022-08-05T06:20:07;6.27;;;5.40;;
19897;SDS011;10111;50.814;4.572;2022-08-05T06:22:33;8.00;;;5.93;;
19897;SDS011;10111;50.814;4.572;2022-08-05T06:24:59;9.87;;;6.27;;
19897;SDS011;10111;50.814;4.572;2022-08-05T06:27:25;11.13;;;6.83;;
19897;SDS011;10111;50.814;4.572;2022-08-05T06:29:51;8.37;;;6.13;;
19897;SDS011;10111;50.814;4.572;2022-08-05T06:32:17;11.17;;;6.27;;
19897;SDS011;10111;50.814;4.572;2022-08-05T06:34:42;8.73;;;6.03;;
19897;SDS011;10111;50.814;4.572;2022-08-05T06:37:08;6.60;;;5.70;;
19897;SDS011;10111;50.814;4.572;2022-08-05T06:39:34;11.60;;;6.20;;
19897;SDS011;10111;50.814;4.572;2022-08-05T06:42:00;14.80;;;5.63;;
19897;SDS011;10111;50.814;4.572;2022-08-05T06:44:26;6.93;;;5.70;;
19897;SDS011;10111;50.814;4.572;2022-08-05T06:46:53;8.17;;;5.43;;
19897;SDS011;10111;50.814;4.572;2022-08-05T06:49:19;10.27;;;5.27;;
19897;SDS011;10111;50.814;4.572;2022-08-05T06:51:44;9.17;;;5.30;;
19897;SDS011;10111;50.814;4.572;2022-08-05T06:54:10;7.73;;;5.50;;
19897;SDS011;10111;50.814;4.572;2022-08-05T06:56:36;12.43;;;6.27;;
19897;SDS011;10111;50.814;4.572;2022-08-05T06:59:02;7.53;;;5.73;;
19897;SDS011;10111;50.814;4.572;2022-08-05T07:01:29;7.13;;;5.17;;
19897;SDS011;10111;50.814;4.572;2022-08-05T07:03:55;7.23;;;4.97;;
19897;SDS011;10111;50.814;4.572;2022-08-05T07:06:20;11.07;;;5.50;;
19897;SDS011;10111;50.814;4.572;2022-08-05T07:08:47;8.67;;;4.43;;
19897;SDS011;10111;50.814;4.572;2022-08-05T07:11:14;6.77;;;4.90;;
19897;SDS011;10111;50.814;4.572;2022-08-05T07:13:40;17.30;;;6.70;;
19897;SDS011;10111;50.814;4.572;2022-08-05T07:16:24;12.43;;;5.83;;
19897;SDS011;10111;50.814;4.572;2022-08-05T07:19:08;13.07;;;7.03;;
19897;SDS011;10111;50.814;4.572;2022-08-05T07:21:33;7.33;;;5.10;;
19897;SDS011;10111;50.814;4.572;2022-08-05T07:23:59;12.40;;;6.17;;
19897;SDS011;10111;50.814;4.572;2022-08-05T07:26:25;6.77;;;5.00;;
19897;SDS011;10111;50.814;4.572;2022-08-05T07:28:50;8.53;;;5.33;;
19897;SDS011;10111;50.814;4.572;2022-08-05T07:31:16;11.97;;;5.67;;
19897;SDS011;10111;50.814;4.572;2022-08-05T07:33:42;6.80;;;5.10;;
19897;SDS011;10111;50.814;4.572;2022-08-05T07:36:08;12.80;;;5.47;;
19897;SDS011;10111;50.814;4.572;2022-08-05T07:38:34;6.57;;;5.13;;
19897;SDS011;10111;50.814;4.572;2022-08-05T07:41:02;9.23;;;5.40;;
19897;SDS011;10111;50.814;4.572;2022-08-05T07:43:32;6.80;;;5.00;;
19897;SDS011;10111;50.814;4.572;2022-08-05T07:45:57;8.23;;;5.80;;
19897;SDS011;10111;50.814;4.572;2022-08-05T07:48:23;6.37;;;5.10;;
19897;SDS011;10111;50.814;4.572;2022-08-05T07:50:49;8.37;;;5.27;;
19897;SDS011;10111;50.814;4.572;2022-08-05T07:53:14;9.70;;;5.07;;
19897;SDS011;10111;50.814;4.572;2022-08-05T07:55:40;7.90;;;4.70;;
19897;SDS011;10111;50.814;4.572;2022-08-05T07:58:06;7.80;;;5.03;;
19897;SDS011;10111;50.814;4.572;2022-08-05T08:00:31;6.23;;;4.40;;
19897;SDS011;10111;50.814;4.572;2022-08-05T08:02:57;6.33;;;4.80;;
19897;SDS011;10111;50.814;4.572;2022-08-05T08:05:23;9.07;;;5.30;;
19897;SDS011;10111;50.814;4.572;2022-08-05T08:07:50;7.73;;;5.20;;
19897;SDS011;10111;50.814;4.572;2022-08-05T08:10:16;7.73;;;4.93;;
19897;SDS011;10111;50.814;4.572;2022-08-05T08:12:41;8.63;;;5.33;;
19897;SDS011;10111;50.814;4.572;2022-08-05T08:15:08;7.77;;;4.77;;
19897;SDS011;10111;50.814;4.572;2022-08-05T08:17:34;5.50;;;4.77;;
19897;SDS011;10111;50.814;4.572;2022-08-05T08:20:00;10.83;;;5.23;;
19897;SDS011;10111;50.814;4.572;2022-08-05T08:22:28;5.77;;;4.93;;
19897;SDS011;10111;50.814;4.572;2022-08-05T08:24:54;12.47;;;5.03;;
19897;SDS011;10111;50.814;4.572;2022-08-05T08:27:20;9.23;;;4.57;;
19897;SDS011;10111;50.814;4.572;2022-08-05T08:29:46;5.23;;;4.73;;
19897;SDS011;10111;50.814;4.572;2022-08-05T08:32:12;6.30;;;4.03;;
19897;SDS011;10111;50.814;4.572;2022-08-05T08:34:37;4.57;;;4.07;;
19897;SDS011;10111;50.814;4.572;2022-08-05T08:37:03;8.40;;;4.87;;
19897;SDS011;10111;50.814;4.572;2022-08-05T08:39:29;5.17;;;4.13;;
19897;SDS011;10111;50.814;4.572;2022-08-05T08:41:54;7.53;;;3.93;;
19897;SDS011;10111;50.814;4.572;2022-08-05T08:44:22;8.47;;;4.63;;
19897;SDS011;10111;50.814;4.572;2022-08-05T08:46:49;8.07;;;4.20;;
19897;SDS011;10111;50.814;4.572;2022-08-05T08:49:17;11.47;;;5.37;;
19897;SDS011;10111;50.814;4.572;2022-08-05T08:51:51;5.23;;;3.50;;
19897;SDS011;10111;50.814;4.572;2022-08-05T08:54:23;6.00;;;3.30;;
19897;SDS011;10111;50.814;4.572;2022-08-05T08:56:49;7.27;;;3.20;;
19897;SDS011;10111;50.814;4.572;2022-08-05T08:59:17;6.50;;;3.67;;
19897;SDS011;10111;50.814;4.572;2022-08-05T09:01:44;6.87;;;3.40;;
19897;SDS011;10111;50.814;4.572;2022-08-05T09:04:10;6.63;;;4.70;;
19897;SDS011;10111;50.814;4.572;2022-08-05T09:06:37;6.87;;;4.20;;
19897;SDS011;10111;50.814;4.572;2022-08-05T09:09:03;5.87;;;3.00;;
19897;SDS011;10111;50.814;4.572;2022-08-05T09:11:29;6.27;;;3.03;;
19897;SDS011;10111;50.814;4.572;2022-08-05T09:13:57;3.50;;;2.83;;
19897;SDS011;10111;50.814;4.572;2022-08-05T09:16:23;5.67;;;2.80;;
19897;SDS011;10111;50.814;4.572;2022-08-05T09:18:49;7.33;;;2.57;;
19897;SDS011;10111;50.814;4.572;2022-08-05T09:21:16;5.03;;;2.30;;
19897;SDS011;10111;50.814;4.572;2022-08-05T09:23:43;3.10;;;2.13;;
19897;SDS011;10111;50.814;4.572;2022-08-05T09:26:10;4.20;;;2.20;;
19897;SDS011;10111;50.814;4.572;2022-08-05T09:28:38;2.40;;;1.80;;
19897;SDS011;10111;50.814;4.572;2022-08-05T09:31:14;2.50;;;2.13;;
19897;SDS011;10111;50.814;4.572;2022-08-05T09:33:59;2.33;;;2.13;;
19897;SDS011;10111;50.814;4.572;2022-08-05T09:36:48;3.27;;;2.83;;
19897;SDS011;10111;50.814;4.572;2022-08-05T09:39:16;4.23;;;1.97;;
19897;SDS011;10111;50.814;4.572;2022-08-05T09:42:02;3.20;;;2.10;;
19897;SDS011;10111;50.814;4.572;2022-08-05T09:44:48;2.70;;;2.40;;
19897;SDS011;10111;50.814;4.572;2022-08-05T09:47:19;3.17;;;2.63;;
19897;SDS011;10111;50.814;4.572;2022-08-05T09:55:10;3.80;;;1.93;;
19897;SDS011;10111;50.814;4.572;2022-08-05T09:57:38;2.10;;;1.90;;
19897;SDS011;10111;50.814;4.572;2022-08-05T10:02:41;1.93;;;1.67;;
19897;SDS011;10111;50.814;4.572;2022-08-05T10:05:10;3.23;;;1.53;;
19897;SDS011;10111;50.814;4.572;2022-08-05T10:07:42;3.23;;;1.67;;
19897;SDS011;10111;50.814;4.572;2022-08-05T10:10:22;4.83;;;1.50;;
19897;SDS011;10111;50.814;4.572;2022-08-05T10:12:51;1.60;;;1.50;;
19897;SDS011;10111;50.814;4.572;2022-08-05T10:15:20;2.30;;;1.67;;
19897;SDS011;10111;50.814;4.572;2022-08-05T10:23:12;1.70;;;1.60;;
19897;SDS011;10111;50.814;4.572;2022-08-05T10:25:42;2.60;;;2.00;;
19897;SDS011;10111;50.814;4.572;2022-08-05T10:28:08;6.00;;;1.67;;
19897;SDS011;10111;50.814;4.572;2022-08-05T10:30:34;2.23;;;1.23;;
19897;SDS011;10111;50.814;4.572;2022-08-05T10:33:02;3.37;;;1.63;;
19897;SDS011;10111;50.814;4.572;2022-08-05T10:35:29;1.80;;;1.70;;
19897;SDS011;10111;50.814;4.572;2022-08-05T10:37:56;2.07;;;1.93;;
19897;SDS011;10111;50.814;4.572;2022-08-05T10:40:32;2.50;;;1.80;;
19897;SDS011;10111;50.814;4.572;2022-08-05T10:43:03;2.27;;;2.07;;
19897;SDS011;10111;50.814;4.572;2022-08-05T10:45:36;3.47;;;2.87;;
19897;SDS011;10111;50.814;4.572;2022-08-05T10:50:56;4.33;;;2.20;;
19897;SDS011;10111;50.814;4.572;2022-08-05T10:53:32;3.37;;;2.37;;
19897;SDS011;10111;50.814;4.572;2022-08-05T10:56:07;2.73;;;2.40;;
19897;SDS011;10111;50.814;4.572;2022-08-05T10:58:48;2.67;;;2.47;;
19897;SDS011;10111;50.814;4.572;2022-08-05T11:01:17;4.10;;;3.00;;
19897;SDS011;10111;50.814;4.572;2022-08-05T11:04:04;2.90;;;2.40;;
19897;SDS011;10111;50.814;4.572;2022-08-05T11:06:34;4.20;;;3.40;;
19897;SDS011;10111;50.814;4.572;2022-08-05T11:09:20;5.03;;;3.70;;
19897;SDS011;10111;50.814;4.572;2022-08-05T11:11:48;2.33;;;2.03;;
19897;SDS011;10111;50.814;4.572;2022-08-05T11:17:27;4.60;;;2.80;;
19897;SDS011;10111;50.814;4.572;2022-08-05T11:19:49;2.60;;;2.43;;
19897;SDS011;10111;50.814;4.572;2022-08-05T11:27:55;3.87;;;1.70;;
19897;SDS011;10111;50.814;4.572;2022-08-05T11:31:10;4.63;;;2.10;;
19897;SDS011;10111;50.814;4.572;2022-08-05T11:33:28;1.40;;;1.30;;
19897;SDS011;10111;50.814;4.572;2022-08-05T11:35:58;3.60;;;1.23;;
19897;SDS011;10111;50.814;4.572;2022-08-05T11:41:47;1.50;;;1.40;;
19897;SDS011;10111;50.814;4.572;2022-08-05T11:44:05;1.20;;;1.10;;
19897;SDS011;10111;50.814;4.572;2022-08-05T11:49:11;3.40;;;1.40;;
19897;SDS011;10111;50.814;4.572;2022-08-05T11:51:39;4.10;;;1.77;;
19897;SDS011;10111;50.814;4.572;2022-08-05T11:54:08;3.43;;;1.40;;
19897;SDS011;10111;50.814;4.572;2022-08-05T11:59:20;3.37;;;1.53;;
19897;SDS011;10111;50.814;4.572;2022-08-05T12:02:08;1.57;;;0.90;;
19897;SDS011;10111;50.814;4.572;2022-08-05T12:04:41;2.20;;;1.33;;
19897;SDS011;10111;50.814;4.572;2022-08-05T12:07:09;1.67;;;1.20;;
19897;SDS011;10111;50.814;4.572;2022-08-05T12:09:40;2.07;;;1.30;;
19897;SDS011;10111;50.814;4.572;2022-08-05T12:12:08;1.07;;;0.97;;
19897;SDS011;10111;50.814;4.572;2022-08-05T12:14:35;1.70;;;1.00;;
19897;SDS011;10111;50.814;4.572;2022-08-05T12:17:09;1.70;;;1.57;;
19897;SDS011;10111;50.814;4.572;2022-08-05T12:19:43;1.17;;;1.03;;
19897;SDS011;10111;50.814;4.572;2022-08-05T12:22:11;2.30;;;1.30;;
19897;SDS011;10111;50.814;4.572;2022-08-05T12:24:44;2.73;;;0.90;;
19897;SDS011;10111;50.814;4.572;2022-08-05T12:27:27;2.67;;;1.40;;
19897;SDS011;10111;50.814;4.572;2022-08-05T12:32:42;2.60;;;1.67;;
19897;SDS011;10111;50.814;4.572;2022-08-05T12:35:10;4.97;;;1.20;;
19897;SDS011;10111;50.814;4.572;2022-08-05T12:37:39;2.80;;;2.03;;
19897;SDS011;10111;50.814;4.572;2022-08-05T12:40:08;2.30;;;1.30;;
19897;SDS011;10111;50.814;4.572;2022-08-05T12:42:34;1.60;;;1.50;;
19897;SDS011;10111;50.814;4.572;2022-08-05T12:45:09;1.77;;;1.00;;
19897;SDS011;10111;50.814;4.572;2022-08-05T12:47:35;1.87;;;1.50;;
19897;SDS011;10111;50.814;4.572;2022-08-05T12:50:14;3.10;;;1.67;;
19897;SDS011;10111;50.814;4.572;2022-08-05T12:52:41;5.67;;;2.53;;
19897;SDS011;10111;50.814;4.572;2022-08-05T12:55:17;1.73;;;1.63;;
19897;SDS011;10111;50.814;4.572;2022-08-05T12:57:47;1.60;;;1.20;;
19897;SDS011;10111;50.814;4.572;2022-08-05T13:00:20;4.03;;;1.60;;
19897;SDS011;10111;50.814;4.572;2022-08-05T13:02:46;2.57;;;1.57;;
19897;SDS011;10111;50.814;4.572;2022-08-05T13:05:12;1.70;;;1.10;;
19897;SDS011;10111;50.814;4.572;2022-08-05T13:07:39;1.83;;;1.10;;
19897;SDS011;10111;50.814;4.572;2022-08-05T13:10:10;2.33;;;1.10;;
19897;SDS011;10111;50.814;4.572;2022-08-05T13:12:40;0.83;;;0.83;;
19897;SDS011;10111;50.814;4.572;2022-08-05T13:15:08;2.70;;;1.03;;
19897;SDS011;10111;50.814;4.572;2022-08-05T13:17:38;3.37;;;1.27;;
19897;SDS011;10111;50.814;4.572;2022-08-05T13:20:11;1.70;;;1.07;;
19897;SDS011;10111;50.814;4.572;2022-08-05T13:22:45;0.90;;;0.80;;
19897;SDS011;10111;50.814;4.572;2022-08-05T13:25:13;2.47;;;0.93;;
19897;SDS011;10111;50.814;4.572;2022-08-05T13:27:42;1.37;;;1.03;;
19897;SDS011;10111;50.814;4.572;2022-08-05T13:30:16;1.83;;;0.93;;
19897;SDS011;10111;50.814;4.572;2022-08-05T13:32:45;0.87;;;0.60;;
19897;SDS011;10111;50.814;4.572;2022-08-05T13:35:12;2.07;;;1.03;;
19897;SDS011;10111;50.814;4.572;2022-08-05T13:37:39;0.90;;;0.90;;
19897;SDS011;10111;50.814;4.572;2022-08-05T13:40:05;0.60;;;0.60;;
19897;SDS011;10111;50.814;4.572;2022-08-05T13:42:31;0.70;;;0.70;;
19897;SDS011;10111;50.814;4.572;2022-08-05T13:44:57;4.47;;;0.73;;
19897;SDS011;10111;50.814;4.572;2022-08-05T13:47:23;0.50;;;0.50;;
19897;SDS011;10111;50.814;4.572;2022-08-05T13:49:50;0.83;;;0.83;;
19897;SDS011;10111;50.814;4.572;2022-08-05T13:52:20;1.37;;;0.77;;
19897;SDS011;10111;50.814;4.572;2022-08-05T13:54:49;1.77;;;0.60;;
19897;SDS011;10111;50.814;4.572;2022-08-05T13:57:15;0.70;;;0.70;;
19897;SDS011;10111;50.814;4.572;2022-08-05T13:59:42;0.57;;;0.57;;
19897;SDS011;10111;50.814;4.572;2022-08-05T14:02:09;0.63;;;0.60;;
19897;SDS011;10111;50.814;4.572;2022-08-05T14:04:37;0.60;;;0.60;;
19897;SDS011;10111;50.814;4.572;2022-08-05T14:07:27;0.30;;;0.30;;
19897;SDS011;10111;50.814;4.572;2022-08-05T14:09:57;1.03;;;0.60;;
19897;SDS011;10111;50.814;4.572;2022-08-05T14:12:23;0.73;;;0.70;;
19897;SDS011;10111;50.814;4.572;2022-08-05T14:14:49;6.17;;;1.00;;
19897;SDS011;10111;50.814;4.572;2022-08-05T14:17:15;1.33;;;0.60;;
19897;SDS011;10111;50.814;4.572;2022-08-05T14:19:41;1.47;;;0.97;;
19897;SDS011;10111;50.814;4.572;2022-08-05T14:22:07;2.73;;;0.93;;
19897;SDS011;10111;50.814;4.572;2022-08-05T14:24:33;0.73;;;0.70;;
19897;SDS011;10111;50.814;4.572;2022-08-05T14:26:58;1.27;;;0.70;;
19897;SDS011;10111;50.814;4.572;2022-08-05T14:29:24;0.50;;;0.50;;
19897;SDS011;10111;50.814;4.572;2022-08-05T14:31:50;0.60;;;0.60;;
19897;SDS011;10111;50.814;4.572;2022-08-05T14:34:15;1.80;;;0.57;;
19897;SDS011;10111;50.814;4.572;2022-08-05T14:36:41;0.93;;;0.70;;
19897;SDS011;10111;50.814;4.572;2022-08-05T14:39:07;0.90;;;0.70;;
19897;SDS011;10111;50.814;4.572;2022-08-05T14:41:33;0.70;;;0.70;;
19897;SDS011;10111;50.814;4.572;2022-08-05T14:43:59;2.97;;;0.93;;
19897;SDS011;10111;50.814;4.572;2022-08-05T14:46:26;1.40;;;0.60;;
19897;SDS011;10111;50.814;4.572;2022-08-05T14:48:56;1.43;;;0.87;;
19897;SDS011;10111;50.814;4.572;2022-08-05T14:51:23;0.40;;;0.40;;
19897;SDS011;10111;50.814;4.572;2022-08-05T14:53:48;1.13;;;0.73;;
19897;SDS011;10111;50.814;4.572;2022-08-05T14:56:14;1.57;;;0.70;;
19897;SDS011;10111;50.814;4.572;2022-08-05T14:58:40;0.87;;;0.60;;
19897;SDS011;10111;50.814;4.572;2022-08-05T15:01:06;2.37;;;0.70;;
19897;SDS011;10111;50.814;4.572;2022-08-05T15:03:32;1.67;;;0.80;;
19897;SDS011;10111;50.814;4.572;2022-08-05T15:05:58;0.70;;;0.70;;
19897;SDS011;10111;50.814;4.572;2022-08-05T15:08:24;1.30;;;0.83;;
19897;SDS011;10111;50.814;4.572;2022-08-05T15:10:49;1.00;;;0.90;;
19897;SDS011;10111;50.814;4.572;2022-08-05T15:13:15;1.50;;;1.13;;
19897;SDS011;10111;50.814;4.572;2022-08-05T15:15:41;0.77;;;0.77;;
19897;SDS011;10111;50.814;4.572;2022-08-05T15:18:07;2.50;;;0.60;;
19897;SDS011;10111;50.814;4.572;2022-08-05T15:20:33;1.63;;;0.60;;
19897;SDS011;10111;50.814;4.572;2022-08-05T15:23:05;0.50;;;0.50;;
19897;SDS011;10111;50.814;4.572;2022-08-05T15:25:31;1.07;;;0.63;;
19897;SDS011;10111;50.814;4.572;2022-08-05T15:27:57;2.43;;;0.97;;
19897;SDS011;10111;50.814;4.572;2022-08-05T15:30:23;1.10;;;1.07;;
19897;SDS011;10111;50.814;4.572;2022-08-05T15:32:49;2.13;;;0.90;;
19897;SDS011;10111;50.814;4.572;2022-08-05T15:35:15;2.30;;;0.80;;
19897;SDS011;10111;50.814;4.572;2022-08-05T15:37:40;2.93;;;0.87;;
19897;SDS011;10111;50.814;4.572;2022-08-05T15:40:06;1.37;;;0.70;;
19897;SDS011;10111;50.814;4.572;2022-08-05T15:42:32;0.67;;;0.67;;
19897;SDS011;10111;50.814;4.572;2022-08-05T15:44:58;2.13;;;1.00;;
19897;SDS011;10111;50.814;4.572;2022-08-05T15:47:24;1.80;;;0.80;;
19897;SDS011;10111;50.814;4.572;2022-08-05T15:49:49;1.07;;;0.70;;
19897;SDS011;10111;50.814;4.572;2022-08-05T15:52:19;0.83;;;0.80;;
19897;SDS011;10111;50.814;4.572;2022-08-05T15:54:45;0.90;;;0.90;;
19897;SDS011;10111;50.814;4.572;2022-08-05T15:57:10;0.80;;;0.80;;
19897;SDS011;10111;50.814;4.572;2022-08-05T15:59:36;1.97;;;0.90;;
19897;SDS011;10111;50.814;4.572;2022-08-05T16:02:02;0.93;;;0.90;;
19897;SDS011;10111;50.814;4.572;2022-08-05T16:04:27;1.53;;;0.70;;
19897;SDS011;10111;50.814;4.572;2022-08-05T16:06:53;1.20;;;0.93;;
19897;SDS011;10111;50.814;4.572;2022-08-05T16:09:19;4.20;;;1.00;;
19897;SDS011;10111;50.814;4.572;2022-08-05T16:11:45;0.57;;;0.53;;
19897;SDS011;10111;50.814;4.572;2022-08-05T16:14:11;4.17;;;0.87;;
19897;SDS011;10111;50.814;4.572;2022-08-05T16:16:36;1.13;;;0.60;;
19897;SDS011;10111;50.814;4.572;2022-08-05T16:19:02;0.77;;;0.77;;
19897;SDS011;10111;50.814;4.572;2022-08-05T16:21:28;0.97;;;0.83;;
19897;SDS011;10111;50.814;4.572;2022-08-05T16:23:54;4.37;;;0.70;;
19897;SDS011;10111;50.814;4.572;2022-08-05T16:26:20;0.70;;;0.70;;
19897;SDS011;10111;50.814;4.572;2022-08-05T16:28:45;1.80;;;0.60;;
19897;SDS011;10111;50.814;4.572;2022-08-05T16:31:12;1.73;;;0.60;;
19897;SDS011;10111;50.814;4.572;2022-08-05T16:33:38;1.80;;;0.70;;
19897;SDS011;10111;50.814;4.572;2022-08-05T16:36:04;2.97;;;0.70;;
19897;SDS011;10111;50.814;4.572;2022-08-05T16:38:30;1.40;;;0.67;;
19897;SDS011;10111;50.814;4.572;2022-08-05T16:40:57;2.57;;;1.10;;
19897;SDS011;10111;50.814;4.572;2022-08-05T16:43:25;1.03;;;0.63;;
19897;SDS011;10111;50.814;4.572;2022-08-05T16:45:52;1.97;;;0.63;;
19897;SDS011;10111;50.814;4.572;2022-08-05T16:48:21;1.53;;;0.73;;
19897;SDS011;10111;50.814;4.572;2022-08-05T16:50:47;2.50;;;1.27;;
19897;SDS011;10111;50.814;4.572;2022-08-05T16:53:13;2.17;;;0.70;;
19897;SDS011;10111;50.814;4.572;2022-08-05T16:55:39;5.57;;;0.60;;
19897;SDS011;10111;50.814;4.572;2022-08-05T16:58:05;3.07;;;0.50;;
19897;SDS011;10111;50.814;4.572;2022-08-05T17:00:31;0.70;;;0.67;;
19897;SDS011;10111;50.814;4.572;2022-08-05T17:02:58;1.13;;;1.13;;
19897;SDS011;10111;50.814;4.572;2022-08-05T17:05:24;0.80;;;0.80;;
19897;SDS011;10111;50.814;4.572;2022-08-05T17:07:50;2.00;;;0.87;;
19897;SDS011;10111;50.814;4.572;2022-08-05T17:10:16;3.30;;;0.60;;
19897;SDS011;10111;50.814;4.572;2022-08-05T17:12:41;0.53;;;0.50;;
19897;SDS011;10111;50.814;4.572;2022-08-05T17:15:07;0.90;;;0.90;;
19897;SDS011;10111;50.814;4.572;2022-08-05T17:17:33;1.13;;;0.87;;
19897;SDS011;10111;50.814;4.572;2022-08-05T17:19:59;2.03;;;0.70;;
19897;SDS011;10111;50.814;4.572;2022-08-05T17:22:29;1.37;;;0.73;;
19897;SDS011;10111;50.814;4.572;2022-08-05T17:24:55;2.00;;;0.67;;
19897;SDS011;10111;50.814;4.572;2022-08-05T17:27:21;2.60;;;0.90;;
19897;SDS011;10111;50.814;4.572;2022-08-05T17:29:47;3.40;;;0.77;;
19897;SDS011;10111;50.814;4.572;2022-08-05T17:32:13;1.97;;;0.70;;
19897;SDS011;10111;50.814;4.572;2022-08-05T17:34:39;2.20;;;0.77;;
19897;SDS011;10111;50.814;4.572;2022-08-05T17:37:05;3.77;;;0.60;;
19897;SDS011;10111;50.814;4.572;2022-08-05T17:39:31;2.63;;;0.70;;
19897;SDS011;10111;50.814;4.572;2022-08-05T17:41:59;0.60;;;0.60;;
19897;SDS011;10111;50.814;4.572;2022-08-05T17:44:28;1.90;;;0.90;;
19897;SDS011;10111;50.814;4.572;2022-08-05T17:46:54;2.50;;;2.30;;
19897;SDS011;10111;50.814;4.572;2022-08-05T17:49:20;0.60;;;0.60;;
19897;SDS011;10111;50.814;4.572;2022-08-05T17:51:46;2.73;;;0.73;;
19897;SDS011;10111;50.814;4.572;2022-08-05T17:54:12;1.10;;;0.90;;
19897;SDS011;10111;50.814;4.572;2022-08-05T17:56:38;1.57;;;1.00;;
19897;SDS011;10111;50.814;4.572;2022-08-05T17:59:03;1.67;;;1.47;;
19897;SDS011;10111;50.814;4.572;2022-08-05T18:01:29;1.20;;;0.80;;
19897;SDS011;10111;50.814;4.572;2022-08-05T18:03:55;1.33;;;0.70;;
19897;SDS011;10111;50.814;4.572;2022-08-05T18:06:21;0.83;;;0.60;;
19897;SDS011;10111;50.814;4.572;2022-08-05T18:08:46;6.03;;;1.47;;
19897;SDS011;10111;50.814;4.572;2022-08-05T18:11:12;5.73;;;2.90;;
19897;SDS011;10111;50.814;4.572;2022-08-05T18:13:39;1.83;;;0.97;;
19897;SDS011;10111;50.814;4.572;2022-08-05T18:16:05;1.30;;;0.83;;
19897;SDS011;10111;50.814;4.572;2022-08-05T18:18:33;2.27;;;1.13;;
19897;SDS011;10111;50.814;4.572;2022-08-05T18:20:59;2.53;;;1.00;;
19897;SDS011;10111;50.814;4.572;2022-08-05T18:23:25;5.50;;;1.27;;
19897;SDS011;10111;50.814;4.572;2022-08-05T18:25:50;2.40;;;0.80;;
19897;SDS011;10111;50.814;4.572;2022-08-05T18:28:16;0.87;;;0.80;;
19897;SDS011;10111;50.814;4.572;2022-08-05T18:30:43;1.47;;;0.80;;
19897;SDS011;10111;50.814;4.572;2022-08-05T18:33:09;1.43;;;1.13;;
19897;SDS011;10111;50.814;4.572;2022-08-05T18:35:34;2.87;;;1.60;;
19897;SDS011;10111;50.814;4.572;2022-08-05T18:38:00;2.57;;;0.70;;
19897;SDS011;10111;50.814;4.572;2022-08-05T18:40:26;2.07;;;0.80;;
19897;SDS011;10111;50.814;4.572;2022-08-05T18:42:51;5.13;;;1.10;;
19897;SDS011;10111;50.814;4.572;2022-08-05T18:45:17;3.00;;;0.80;;
19897;SDS011;10111;50.814;4.572;2022-08-05T18:47:43;2.37;;;0.87;;
19897;SDS011;10111;50.814;4.572;2022-08-05T18:50:09;2.53;;;0.70;;
19897;SDS011;10111;50.814;4.572;2022-08-05T18:52:53;3.70;;;1.63;;
19897;SDS011;10111;50.814;4.572;2022-08-05T18:55:19;2.67;;;1.13;;
19897;SDS011;10111;50.814;4.572;2022-08-05T18:57:45;5.37;;;0.80;;
19897;SDS011;10111;50.814;4.572;2022-08-05T19:00:11;1.77;;;0.90;;
19897;SDS011;10111;50.814;4.572;2022-08-05T19:02:37;1.80;;;0.80;;
19897;SDS011;10111;50.814;4.572;2022-08-05T19:05:03;4.27;;;0.90;;
19897;SDS011;10111;50.814;4.572;2022-08-05T19:07:30;4.97;;;0.90;;
19897;SDS011;10111;50.814;4.572;2022-08-05T19:09:56;2.43;;;1.83;;
19897;SDS011;10111;50.814;4.572;2022-08-05T19:12:22;3.77;;;0.93;;
19897;SDS011;10111;50.814;4.572;2022-08-05T19:14:48;4.20;;;1.10;;
19897;SDS011;10111;50.814;4.572;2022-08-05T19:17:13;1.23;;;0.83;;
19897;SDS011;10111;50.814;4.572;2022-08-05T19:19:40;3.40;;;0.63;;
19897;SDS011;10111;50.814;4.572;2022-08-05T19:22:10;1.33;;;0.80;;
19897;SDS011;10111;50.814;4.572;2022-08-05T19:24:36;2.27;;;0.80;;
19897;SDS011;10111;50.814;4.572;2022-08-05T19:27:02;1.97;;;0.70;;
19897;SDS011;10111;50.814;4.572;2022-08-05T19:29:29;0.67;;;0.50;;
19897;SDS011;10111;50.814;4.572;2022-08-05T19:31:55;2.67;;;1.83;;
19897;SDS011;10111;50.814;4.572;2022-08-05T19:34:21;2.97;;;0.60;;
19897;SDS011;10111;50.814;4.572;2022-08-05T19:36:47;1.37;;;0.50;;
19897;SDS011;10111;50.814;4.572;2022-08-05T19:39:13;2.13;;;1.00;;
19897;SDS011;10111;50.814;4.572;2022-08-05T19:41:38;1.17;;;0.50;;
19897;SDS011;10111;50.814;4.572;2022-08-05T19:44:04;3.37;;;0.80;;
19897;SDS011;10111;50.814;4.572;2022-08-05T19:46:33;2.63;;;0.60;;
19897;SDS011;10111;50.814;4.572;2022-08-05T19:49:02;1.43;;;0.70;;
19897;SDS011;10111;50.814;4.572;2022-08-05T19:51:30;2.07;;;0.60;;
19897;SDS011;10111;50.814;4.572;2022-08-05T19:53:56;4.30;;;0.73;;
19897;SDS011;10111;50.814;4.572;2022-08-05T19:56:22;0.97;;;0.60;;
19897;SDS011;10111;50.814;4.572;2022-08-05T19:58:48;0.53;;;0.50;;
19897;SDS011;10111;50.814;4.572;2022-08-05T20:01:14;1.53;;;0.57;;
19897;SDS011;10111;50.814;4.572;2022-08-05T20:03:39;2.43;;;1.13;;
19897;SDS011;10111;50.814;4.572;2022-08-05T20:06:05;1.13;;;0.60;;
19897;SDS011;10111;50.814;4.572;2022-08-05T20:08:31;6.50;;;2.90;;
19897;SDS011;10111;50.814;4.572;2022-08-05T20:10:57;3.50;;;1.37;;
19897;SDS011;10111;50.814;4.572;2022-08-05T20:13:23;2.27;;;0.80;;
19897;SDS011;10111;50.814;4.572;2022-08-05T20:15:52;0.80;;;0.60;;
19897;SDS011;10111;50.814;4.572;2022-08-05T20:18:17;1.57;;;0.60;;
19897;SDS011;10111;50.814;4.572;2022-08-05T20:20:44;2.30;;;0.80;;
19897;SDS011;10111;50.814;4.572;2022-08-05T20:23:11;1.90;;;0.60;;
19897;SDS011;10111;50.814;4.572;2022-08-05T20:25:37;1.57;;;0.80;;
19897;SDS011;10111;50.814;4.572;2022-08-05T20:28:04;3.83;;;0.60;;
19897;SDS011;10111;50.814;4.572;2022-08-05T20:30:33;1.20;;;0.80;;